sensor_id;sensor_type;location;lat;lon;timestamp;P1;durP1;ratioP1;P2;durP2;ratioP2
20069;SDS011;10195;50.868;4.382;2022-07-23T00:00:00;21.33;;;14.02;;
20069;SDS011;10195;50.868;4.382;2022-07-23T00:02:26;17.10;;;13.17;;
20069;SDS011;10195;50.868;4.382;2022-07-23T00:04:51;19.73;;;13.53;;
20069;SDS011;10195;50.868;4.382;2022-07-23T00:07:17;21.67;;;13.37;;
20069;SDS011;10195;50.868;4.382;2022-07-23T00:09:43;22.30;;;14.20;;
20069;SDS011;10195;50.868;4.382;2022-07-23T00:12:08;18.90;;;14.03;;
20069;SDS011;10195;50.868;4.382;2022-07-23T00:14:34;17.87;;;13.57;;
20069;SDS011;10195;50.868;4.382;2022-07-23T00:17:00;20.30;;;13.73;;
20069;SDS011;10195;50.868;4.382;2022-07-23T00:19:25;18.52;;;13.82;;
20069;SDS011;10195;50.868;4.382;2022-07-23T00:21:51;19.90;;;14.63;;
20069;SDS011;10195;50.868;4.382;2022-07-23T00:24:16;17.02;;;14.38;;
20069;SDS011;10195;50.868;4.382;2022-07-23T00:26:42;19.20;;;14.80;;
20069;SDS011;10195;50.868;4.382;2022-07-23T00:29:07;21.00;;;15.00;;
20069;SDS011;10195;50.868;4.382;2022-07-23T00:31:33;21.30;;;15.93;;
20069;SDS011;10195;50.868;4.382;2022-07-23T00:33:59;21.00;;;15.50;;
20069;SDS011;10195;50.868;4.382;2022-07-23T00:36:26;20.42;;;14.10;;
20069;SDS011;10195;50.868;4.382;2022-07-23T00:38:52;19.97;;;15.13;;
20069;SDS011;10195;50.868;4.382;2022-07-23T00:41:18;19.77;;;15.07;;
20069;SDS011;10195;50.868;4.382;2022-07-23T00:43:44;21.03;;;15.80;;
20069;SDS011;10195;50.868;4.382;2022-07-23T00:46:09;23.07;;;15.07;;
20069;SDS011;10195;50.868;4.382;2022-07-23T00:48:35;17.50;;;14.43;;
20069;SDS011;10195;50.868;4.382;2022-07-23T00:51:00;19.20;;;15.10;;
20069;SDS011;10195;50.868;4.382;2022-07-23T00:53:26;19.80;;;14.60;;
20069;SDS011;10195;50.868;4.382;2022-07-23T00:55:53;20.30;;;15.13;;
20069;SDS011;10195;50.868;4.382;2022-07-23T00:58:19;18.57;;;15.53;;
20069;SDS011;10195;50.868;4.382;2022-07-23T01:00:45;18.30;;;15.90;;
20069;SDS011;10195;50.868;4.382;2022-07-23T01:03:11;19.63;;;16.10;;
20069;SDS011;10195;50.868;4.382;2022-07-23T01:05:36;22.13;;;16.97;;
20069;SDS011;10195;50.868;4.382;2022-07-23T01:08:02;26.07;;;16.63;;
20069;SDS011;10195;50.868;4.382;2022-07-23T01:10:30;23.67;;;17.17;;
20069;SDS011;10195;50.868;4.382;2022-07-23T01:12:56;25.13;;;16.70;;
20069;SDS011;10195;50.868;4.382;2022-07-23T01:15:32;21.47;;;16.40;;
20069;SDS011;10195;50.868;4.382;2022-07-23T01:18:02;28.90;;;17.48;;
20069;SDS011;10195;50.868;4.382;2022-07-23T01:20:29;23.27;;;17.27;;
20069;SDS011;10195;50.868;4.382;2022-07-23T01:22:55;24.97;;;17.13;;
20069;SDS011;10195;50.868;4.382;2022-07-23T01:25:21;22.27;;;17.20;;
20069;SDS011;10195;50.868;4.382;2022-07-23T01:27:48;24.23;;;17.00;;
20069;SDS011;10195;50.868;4.382;2022-07-23T01:30:14;30.83;;;16.73;;
20069;SDS011;10195;50.868;4.382;2022-07-23T01:32:40;24.83;;;16.47;;
20069;SDS011;10195;50.868;4.382;2022-07-23T01:35:06;21.92;;;16.73;;
20069;SDS011;10195;50.868;4.382;2022-07-23T01:37:32;26.60;;;17.83;;
20069;SDS011;10195;50.868;4.382;2022-07-23T01:39:58;23.40;;;17.98;;
20069;SDS011;10195;50.868;4.382;2022-07-23T01:42:24;21.60;;;16.70;;
20069;SDS011;10195;50.868;4.382;2022-07-23T01:44:50;23.87;;;17.10;;
20069;SDS011;10195;50.868;4.382;2022-07-23T01:47:16;23.03;;;18.40;;
20069;SDS011;10195;50.868;4.382;2022-07-23T01:49:41;22.50;;;17.13;;
20069;SDS011;10195;50.868;4.382;2022-07-23T01:52:07;24.60;;;18.27;;
20069;SDS011;10195;50.868;4.382;2022-07-23T01:54:36;23.97;;;17.60;;
20069;SDS011;10195;50.868;4.382;2022-07-23T01:57:03;24.93;;;17.83;;
20069;SDS011;10195;50.868;4.382;2022-07-23T01:59:29;24.83;;;17.93;;
20069;SDS011;10195;50.868;4.382;2022-07-23T02:01:55;25.57;;;17.60;;
20069;SDS011;10195;50.868;4.382;2022-07-23T02:04:21;23.97;;;17.63;;
20069;SDS011;10195;50.868;4.382;2022-07-23T02:06:47;28.77;;;18.73;;
20069;SDS011;10195;50.868;4.382;2022-07-23T02:09:13;23.97;;;17.83;;
20069;SDS011;10195;50.868;4.382;2022-07-23T02:11:39;23.57;;;17.70;;
20069;SDS011;10195;50.868;4.382;2022-07-23T02:14:05;23.13;;;16.80;;
20069;SDS011;10195;50.868;4.382;2022-07-23T02:16:31;23.67;;;18.50;;
20069;SDS011;10195;50.868;4.382;2022-07-23T02:18:56;23.92;;;17.13;;
20069;SDS011;10195;50.868;4.382;2022-07-23T02:21:22;27.43;;;17.60;;
20069;SDS011;10195;50.868;4.382;2022-07-23T02:23:48;27.70;;;17.57;;
20069;SDS011;10195;50.868;4.382;2022-07-23T02:26:14;21.60;;;16.87;;
20069;SDS011;10195;50.868;4.382;2022-07-23T02:28:39;24.70;;;16.97;;
20069;SDS011;10195;50.868;4.382;2022-07-23T02:31:05;24.90;;;18.20;;
20069;SDS011;10195;50.868;4.382;2022-07-23T02:33:31;25.90;;;18.50;;
20069;SDS011;10195;50.868;4.382;2022-07-23T02:35:57;24.17;;;17.67;;
20069;SDS011;10195;50.868;4.382;2022-07-23T02:38:23;28.40;;;18.57;;
20069;SDS011;10195;50.868;4.382;2022-07-23T02:40:49;23.57;;;18.67;;
20069;SDS011;10195;50.868;4.382;2022-07-23T02:43:14;29.87;;;17.57;;
20069;SDS011;10195;50.868;4.382;2022-07-23T02:45:40;28.40;;;19.20;;
20069;SDS011;10195;50.868;4.382;2022-07-23T02:48:05;26.13;;;18.83;;
20069;SDS011;10195;50.868;4.382;2022-07-23T02:50:31;25.33;;;19.20;;
20069;SDS011;10195;50.868;4.382;2022-07-23T02:52:57;23.47;;;18.50;;
20069;SDS011;10195;50.868;4.382;2022-07-23T02:55:22;24.00;;;19.20;;
20069;SDS011;10195;50.868;4.382;2022-07-23T02:57:48;29.53;;;19.10;;
20069;SDS011;10195;50.868;4.382;2022-07-23T03:00:13;28.47;;;18.90;;
20069;SDS011;10195;50.868;4.382;2022-07-23T03:02:39;27.33;;;18.50;;
20069;SDS011;10195;50.868;4.382;2022-07-23T03:05:05;25.63;;;19.00;;
20069;SDS011;10195;50.868;4.382;2022-07-23T03:07:31;27.77;;;19.07;;
20069;SDS011;10195;50.868;4.382;2022-07-23T03:09:56;26.73;;;19.63;;
20069;SDS011;10195;50.868;4.382;2022-07-23T03:12:22;24.27;;;19.23;;
20069;SDS011;10195;50.868;4.382;2022-07-23T03:14:48;24.87;;;18.40;;
20069;SDS011;10195;50.868;4.382;2022-07-23T03:17:13;27.03;;;19.73;;
20069;SDS011;10195;50.868;4.382;2022-07-23T03:19:39;27.93;;;19.87;;
20069;SDS011;10195;50.868;4.382;2022-07-23T03:22:04;28.37;;;20.57;;
20069;SDS011;10195;50.868;4.382;2022-07-23T03:24:30;26.67;;;19.77;;
20069;SDS011;10195;50.868;4.382;2022-07-23T03:27:15;31.10;;;20.60;;
20069;SDS011;10195;50.868;4.382;2022-07-23T03:29:41;25.40;;;19.13;;
20069;SDS011;10195;50.868;4.382;2022-07-23T03:32:06;28.03;;;19.90;;
20069;SDS011;10195;50.868;4.382;2022-07-23T03:34:32;37.03;;;21.83;;
20069;SDS011;10195;50.868;4.382;2022-07-23T03:36:58;27.27;;;20.27;;
20069;SDS011;10195;50.868;4.382;2022-07-23T03:39:24;30.03;;;20.30;;
20069;SDS011;10195;50.868;4.382;2022-07-23T03:41:49;28.30;;;20.20;;
20069;SDS011;10195;50.868;4.382;2022-07-23T03:44:15;27.63;;;19.13;;
20069;SDS011;10195;50.868;4.382;2022-07-23T03:46:40;29.30;;;19.63;;
20069;SDS011;10195;50.868;4.382;2022-07-23T03:49:06;28.70;;;19.77;;
20069;SDS011;10195;50.868;4.382;2022-07-23T03:51:32;28.27;;;19.77;;
20069;SDS011;10195;50.868;4.382;2022-07-23T03:53:57;28.93;;;19.57;;
20069;SDS011;10195;50.868;4.382;2022-07-23T03:56:23;25.87;;;19.03;;
20069;SDS011;10195;50.868;4.382;2022-07-23T03:58:49;32.57;;;18.50;;
20069;SDS011;10195;50.868;4.382;2022-07-23T04:01:15;26.20;;;19.10;;
20069;SDS011;10195;50.868;4.382;2022-07-23T04:03:40;30.83;;;20.03;;
20069;SDS011;10195;50.868;4.382;2022-07-23T04:06:06;25.63;;;19.03;;
20069;SDS011;10195;50.868;4.382;2022-07-23T04:08:32;27.97;;;19.33;;
20069;SDS011;10195;50.868;4.382;2022-07-23T04:10:58;24.60;;;18.83;;
20069;SDS011;10195;50.868;4.382;2022-07-23T04:13:24;23.70;;;17.33;;
20069;SDS011;10195;50.868;4.382;2022-07-23T04:15:49;23.37;;;17.53;;
20069;SDS011;10195;50.868;4.382;2022-07-23T04:18:16;23.37;;;17.20;;
20069;SDS011;10195;50.868;4.382;2022-07-23T04:20:47;27.03;;;17.07;;
20069;SDS011;10195;50.868;4.382;2022-07-23T04:23:12;26.20;;;16.57;;
20069;SDS011;10195;50.868;4.382;2022-07-23T04:25:38;27.27;;;16.63;;
20069;SDS011;10195;50.868;4.382;2022-07-23T04:28:04;22.87;;;16.67;;
20069;SDS011;10195;50.868;4.382;2022-07-23T04:30:29;19.30;;;15.03;;
20069;SDS011;10195;50.868;4.382;2022-07-23T04:32:55;27.03;;;17.17;;
20069;SDS011;10195;50.868;4.382;2022-07-23T04:35:21;23.57;;;16.20;;
20069;SDS011;10195;50.868;4.382;2022-07-23T04:37:46;24.73;;;17.17;;
20069;SDS011;10195;50.868;4.382;2022-07-23T04:40:12;25.43;;;16.20;;
20069;SDS011;10195;50.868;4.382;2022-07-23T04:42:38;22.30;;;16.40;;
20069;SDS011;10195;50.868;4.382;2022-07-23T04:45:04;23.27;;;17.03;;
20069;SDS011;10195;50.868;4.382;2022-07-23T04:47:30;22.80;;;15.48;;
20069;SDS011;10195;50.868;4.382;2022-07-23T04:49:55;26.40;;;16.87;;
20069;SDS011;10195;50.868;4.382;2022-07-23T04:52:21;24.83;;;15.50;;
20069;SDS011;10195;50.868;4.382;2022-07-23T04:54:47;21.43;;;15.50;;
20069;SDS011;10195;50.868;4.382;2022-07-23T04:57:13;20.45;;;15.10;;
20069;SDS011;10195;50.868;4.382;2022-07-23T04:59:39;22.17;;;15.40;;
20069;SDS011;10195;50.868;4.382;2022-07-23T05:02:04;21.57;;;14.47;;
20069;SDS011;10195;50.868;4.382;2022-07-23T05:04:30;18.13;;;14.00;;
20069;SDS011;10195;50.868;4.382;2022-07-23T05:06:56;19.88;;;13.70;;
20069;SDS011;10195;50.868;4.382;2022-07-23T05:09:22;19.77;;;14.17;;
20069;SDS011;10195;50.868;4.382;2022-07-23T05:11:48;21.52;;;14.27;;
20069;SDS011;10195;50.868;4.382;2022-07-23T05:14:14;16.87;;;14.17;;
20069;SDS011;10195;50.868;4.382;2022-07-23T05:16:40;25.13;;;14.82;;
20069;SDS011;10195;50.868;4.382;2022-07-23T05:19:05;18.63;;;13.65;;
20069;SDS011;10195;50.868;4.382;2022-07-23T05:21:31;24.48;;;14.30;;
20069;SDS011;10195;50.868;4.382;2022-07-23T05:23:57;19.05;;;13.23;;
20069;SDS011;10195;50.868;4.382;2022-07-23T05:26:22;18.80;;;13.00;;
20069;SDS011;10195;50.868;4.382;2022-07-23T05:28:49;18.55;;;13.18;;
20069;SDS011;10195;50.868;4.382;2022-07-23T05:31:15;15.17;;;12.43;;
20069;SDS011;10195;50.868;4.382;2022-07-23T05:33:41;17.73;;;12.27;;
20069;SDS011;10195;50.868;4.382;2022-07-23T05:36:06;16.90;;;12.50;;
20069;SDS011;10195;50.868;4.382;2022-07-23T05:38:32;19.50;;;12.07;;
20069;SDS011;10195;50.868;4.382;2022-07-23T05:40:58;20.95;;;12.98;;
20069;SDS011;10195;50.868;4.382;2022-07-23T05:43:24;17.27;;;12.23;;
20069;SDS011;10195;50.868;4.382;2022-07-23T05:45:50;17.20;;;12.48;;
20069;SDS011;10195;50.868;4.382;2022-07-23T05:48:15;16.73;;;12.50;;
20069;SDS011;10195;50.868;4.382;2022-07-23T05:50:41;19.63;;;13.18;;
20069;SDS011;10195;50.868;4.382;2022-07-23T05:53:07;17.80;;;12.65;;
20069;SDS011;10195;50.868;4.382;2022-07-23T05:55:32;14.63;;;11.63;;
20069;SDS011;10195;50.868;4.382;2022-07-23T05:57:59;17.00;;;11.60;;
20069;SDS011;10195;50.868;4.382;2022-07-23T06:00:25;23.65;;;12.02;;
20069;SDS011;10195;50.868;4.382;2022-07-23T06:02:51;16.77;;;11.45;;
20069;SDS011;10195;50.868;4.382;2022-07-23T06:05:17;16.05;;;11.18;;
20069;SDS011;10195;50.868;4.382;2022-07-23T06:07:43;19.00;;;12.15;;
20069;SDS011;10195;50.868;4.382;2022-07-23T06:10:08;15.25;;;11.40;;
20069;SDS011;10195;50.868;4.382;2022-07-23T06:12:34;15.57;;;10.75;;
20069;SDS011;10195;50.868;4.382;2022-07-23T06:15:00;15.70;;;10.57;;
20069;SDS011;10195;50.868;4.382;2022-07-23T06:17:26;18.27;;;10.63;;
20069;SDS011;10195;50.868;4.382;2022-07-23T06:19:52;11.05;;;9.63;;
20069;SDS011;10195;50.868;4.382;2022-07-23T06:22:18;14.02;;;9.90;;
20069;SDS011;10195;50.868;4.382;2022-07-23T06:24:44;14.10;;;9.43;;
20069;SDS011;10195;50.868;4.382;2022-07-23T06:27:09;12.07;;;8.88;;
20069;SDS011;10195;50.868;4.382;2022-07-23T06:29:35;11.95;;;9.40;;
20069;SDS011;10195;50.868;4.382;2022-07-23T06:32:01;10.57;;;9.40;;
20069;SDS011;10195;50.868;4.382;2022-07-23T06:34:27;14.68;;;10.57;;
20069;SDS011;10195;50.868;4.382;2022-07-23T06:36:52;14.07;;;9.23;;
20069;SDS011;10195;50.868;4.382;2022-07-23T06:39:18;14.43;;;9.82;;
20069;SDS011;10195;50.868;4.382;2022-07-23T06:41:44;10.82;;;9.13;;
20069;SDS011;10195;50.868;4.382;2022-07-23T06:44:09;12.18;;;9.57;;
20069;SDS011;10195;50.868;4.382;2022-07-23T06:46:35;15.52;;;9.75;;
20069;SDS011;10195;50.868;4.382;2022-07-23T06:49:00;12.32;;;9.55;;
20069;SDS011;10195;50.868;4.382;2022-07-23T06:51:26;16.33;;;9.43;;
20069;SDS011;10195;50.868;4.382;2022-07-23T06:53:52;10.95;;;8.95;;
20069;SDS011;10195;50.868;4.382;2022-07-23T06:56:17;15.00;;;8.93;;
20069;SDS011;10195;50.868;4.382;2022-07-23T06:58:43;14.38;;;9.52;;
20069;SDS011;10195;50.868;4.382;2022-07-23T07:01:09;12.45;;;8.65;;
20069;SDS011;10195;50.868;4.382;2022-07-23T07:03:34;14.38;;;9.10;;
20069;SDS011;10195;50.868;4.382;2022-07-23T07:06:00;11.10;;;8.88;;
20069;SDS011;10195;50.868;4.382;2022-07-23T07:08:27;15.38;;;9.57;;
20069;SDS011;10195;50.868;4.382;2022-07-23T07:10:52;13.55;;;9.32;;
20069;SDS011;10195;50.868;4.382;2022-07-23T07:13:19;15.23;;;8.73;;
20069;SDS011;10195;50.868;4.382;2022-07-23T07:15:45;13.40;;;8.60;;
20069;SDS011;10195;50.868;4.382;2022-07-23T07:18:10;16.20;;;9.20;;
20069;SDS011;10195;50.868;4.382;2022-07-23T07:20:36;13.70;;;9.38;;
20069;SDS011;10195;50.868;4.382;2022-07-23T07:23:02;14.40;;;9.45;;
20069;SDS011;10195;50.868;4.382;2022-07-23T07:25:27;13.68;;;9.85;;
20069;SDS011;10195;50.868;4.382;2022-07-23T07:27:53;13.05;;;9.15;;
20069;SDS011;10195;50.868;4.382;2022-07-23T07:30:19;13.77;;;8.93;;
20069;SDS011;10195;50.868;4.382;2022-07-23T07:32:44;12.18;;;7.70;;
20069;SDS011;10195;50.868;4.382;2022-07-23T07:35:10;11.48;;;8.85;;
20069;SDS011;10195;50.868;4.382;2022-07-23T07:37:36;9.57;;;8.00;;
20069;SDS011;10195;50.868;4.382;2022-07-23T07:40:02;11.02;;;9.07;;
20069;SDS011;10195;50.868;4.382;2022-07-23T07:42:28;11.00;;;8.50;;
20069;SDS011;10195;50.868;4.382;2022-07-23T07:44:54;11.98;;;7.78;;
20069;SDS011;10195;50.868;4.382;2022-07-23T07:47:19;11.15;;;7.72;;
20069;SDS011;10195;50.868;4.382;2022-07-23T07:49:45;10.02;;;7.43;;
20069;SDS011;10195;50.868;4.382;2022-07-23T07:52:10;9.85;;;8.55;;
20069;SDS011;10195;50.868;4.382;2022-07-23T07:54:36;11.55;;;8.30;;
20069;SDS011;10195;50.868;4.382;2022-07-23T07:57:02;12.27;;;7.85;;
20069;SDS011;10195;50.868;4.382;2022-07-23T07:59:28;12.30;;;7.05;;
20069;SDS011;10195;50.868;4.382;2022-07-23T08:01:53;14.13;;;8.50;;
20069;SDS011;10195;50.868;4.382;2022-07-23T08:04:19;13.48;;;7.85;;
20069;SDS011;10195;50.868;4.382;2022-07-23T08:06:44;11.55;;;7.85;;
20069;SDS011;10195;50.868;4.382;2022-07-23T08:09:10;14.73;;;7.70;;
20069;SDS011;10195;50.868;4.382;2022-07-23T08:11:36;9.63;;;7.43;;
20069;SDS011;10195;50.868;4.382;2022-07-23T08:14:02;10.30;;;7.47;;
20069;SDS011;10195;50.868;4.382;2022-07-23T08:16:28;13.45;;;7.00;;
20069;SDS011;10195;50.868;4.382;2022-07-23T08:18:53;11.20;;;7.05;;
20069;SDS011;10195;50.868;4.382;2022-07-23T08:21:19;12.73;;;7.43;;
20069;SDS011;10195;50.868;4.382;2022-07-23T08:23:44;11.70;;;7.20;;
20069;SDS011;10195;50.868;4.382;2022-07-23T08:26:10;11.00;;;7.60;;
20069;SDS011;10195;50.868;4.382;2022-07-23T08:28:37;12.15;;;8.05;;
20069;SDS011;10195;50.868;4.382;2022-07-23T08:31:02;13.43;;;7.65;;
20069;SDS011;10195;50.868;4.382;2022-07-23T08:33:30;11.20;;;7.45;;
20069;SDS011;10195;50.868;4.382;2022-07-23T08:35:56;12.80;;;7.45;;
20069;SDS011;10195;50.868;4.382;2022-07-23T08:38:22;11.45;;;7.00;;
20069;SDS011;10195;50.868;4.382;2022-07-23T08:40:48;12.20;;;7.05;;
20069;SDS011;10195;50.868;4.382;2022-07-23T08:43:20;9.73;;;6.80;;
20069;SDS011;10195;50.868;4.382;2022-07-23T08:45:51;11.77;;;7.70;;
20069;SDS011;10195;50.868;4.382;2022-07-23T08:48:22;12.48;;;7.65;;
20069;SDS011;10195;50.868;4.382;2022-07-23T08:50:50;13.15;;;8.13;;
20069;SDS011;10195;50.868;4.382;2022-07-23T08:53:18;13.95;;;7.32;;
20069;SDS011;10195;50.868;4.382;2022-07-23T08:55:45;9.63;;;6.57;;
20069;SDS011;10195;50.868;4.382;2022-07-23T08:58:16;14.43;;;7.43;;
20069;SDS011;10195;50.868;4.382;2022-07-23T09:00:42;12.27;;;7.32;;
20069;SDS011;10195;50.868;4.382;2022-07-23T09:03:13;12.13;;;7.43;;
20069;SDS011;10195;50.868;4.382;2022-07-23T09:05:42;12.25;;;7.93;;
20069;SDS011;10195;50.868;4.382;2022-07-23T09:08:09;10.30;;;7.50;;
20069;SDS011;10195;50.868;4.382;2022-07-23T09:10:46;11.88;;;7.35;;
20069;SDS011;10195;50.868;4.382;2022-07-23T09:16:15;10.82;;;6.97;;
20069;SDS011;10195;50.868;4.382;2022-07-23T09:18:57;10.15;;;6.78;;
20069;SDS011;10195;50.868;4.382;2022-07-23T09:24:07;10.43;;;7.07;;
20069;SDS011;10195;50.868;4.382;2022-07-23T09:31:47;18.73;;;6.20;;
20069;SDS011;10195;50.868;4.382;2022-07-23T09:36:47;8.40;;;5.55;;
20069;SDS011;10195;50.868;4.382;2022-07-23T09:39:15;12.02;;;5.95;;
20069;SDS011;10195;50.868;4.382;2022-07-23T09:41:46;9.57;;;6.45;;
20069;SDS011;10195;50.868;4.382;2022-07-23T09:46:47;9.40;;;5.85;;
20069;SDS011;10195;50.868;4.382;2022-07-23T09:49:15;9.07;;;5.85;;
20069;SDS011;10195;50.868;4.382;2022-07-23T09:52:00;12.80;;;6.00;;
20069;SDS011;10195;50.868;4.382;2022-07-23T09:56:57;10.30;;;5.95;;
20069;SDS011;10195;50.868;4.382;2022-07-23T09:59:28;8.90;;;5.85;;
20069;SDS011;10195;50.868;4.382;2022-07-23T10:01:59;5.63;;;3.55;;
20069;SDS011;10195;50.868;4.382;2022-07-23T10:04:26;6.38;;;3.75;;
20069;SDS011;10195;50.868;4.382;2022-07-23T10:06:54;8.88;;;4.78;;
20069;SDS011;10195;50.868;4.382;2022-07-23T10:09:23;8.40;;;5.40;;
20069;SDS011;10195;50.868;4.382;2022-07-23T10:11:50;7.13;;;5.05;;
20069;SDS011;10195;50.868;4.382;2022-07-23T10:14:19;8.23;;;5.03;;
20069;SDS011;10195;50.868;4.382;2022-07-23T10:16:45;9.93;;;5.15;;
20069;SDS011;10195;50.868;4.382;2022-07-23T10:19:11;12.00;;;5.57;;
20069;SDS011;10195;50.868;4.382;2022-07-23T10:21:40;6.55;;;4.57;;
20069;SDS011;10195;50.868;4.382;2022-07-23T10:24:34;8.93;;;4.82;;
20069;SDS011;10195;50.868;4.382;2022-07-23T10:29:52;6.72;;;4.57;;
20069;SDS011;10195;50.868;4.382;2022-07-23T10:35:18;8.65;;;3.90;;
20069;SDS011;10195;50.868;4.382;2022-07-23T10:37:51;6.68;;;3.97;;
20069;SDS011;10195;50.868;4.382;2022-07-23T10:40:22;5.40;;;4.65;;
20069;SDS011;10195;50.868;4.382;2022-07-23T10:42:51;5.05;;;3.97;;
20069;SDS011;10195;50.868;4.382;2022-07-23T10:47:55;11.85;;;4.45;;
20069;SDS011;10195;50.868;4.382;2022-07-23T10:50:36;8.45;;;4.47;;
20069;SDS011;10195;50.868;4.382;2022-07-23T10:57:59;7.13;;;4.75;;
20069;SDS011;10195;50.868;4.382;2022-07-23T11:00:30;7.68;;;4.45;;
20069;SDS011;10195;50.868;4.382;2022-07-23T11:02:57;7.78;;;4.70;;
20069;SDS011;10195;50.868;4.382;2022-07-23T11:05:46;5.90;;;4.75;;
20069;SDS011;10195;50.868;4.382;2022-07-23T11:08:12;7.13;;;4.70;;
20069;SDS011;10195;50.868;4.382;2022-07-23T11:31:57;8.25;;;4.78;;
20069;SDS011;10195;50.868;4.382;2022-07-23T11:34:34;8.23;;;5.30;;
20069;SDS011;10195;50.868;4.382;2022-07-23T11:37:04;6.15;;;4.63;;
20069;SDS011;10195;50.868;4.382;2022-07-23T11:39:34;8.57;;;5.57;;
20069;SDS011;10195;50.868;4.382;2022-07-23T11:42:01;11.25;;;7.88;;
20069;SDS011;10195;50.868;4.382;2022-07-23T11:44:31;7.82;;;4.95;;
20069;SDS011;10195;50.868;4.382;2022-07-23T11:49:28;8.32;;;5.22;;
20069;SDS011;10195;50.868;4.382;2022-07-23T11:52:10;10.77;;;4.70;;
20069;SDS011;10195;50.868;4.382;2022-07-23T11:54:46;7.80;;;4.97;;
20069;SDS011;10195;50.868;4.382;2022-07-23T11:57:17;11.63;;;5.38;;
20069;SDS011;10195;50.868;4.382;2022-07-23T11:59:46;8.40;;;5.22;;
20069;SDS011;10195;50.868;4.382;2022-07-23T12:02:14;11.07;;;5.53;;
20069;SDS011;10195;50.868;4.382;2022-07-23T12:04:41;8.85;;;5.38;;
20069;SDS011;10195;50.868;4.382;2022-07-23T12:10:00;10.15;;;6.30;;
20069;SDS011;10195;50.868;4.382;2022-07-23T12:12:40;8.80;;;5.45;;
20069;SDS011;10195;50.868;4.382;2022-07-23T12:15:07;9.00;;;5.57;;
20069;SDS011;10195;50.868;4.382;2022-07-23T12:17:36;7.88;;;5.45;;
20069;SDS011;10195;50.868;4.382;2022-07-23T12:20:04;9.45;;;5.10;;
20069;SDS011;10195;50.868;4.382;2022-07-23T12:22:41;8.88;;;4.93;;
20069;SDS011;10195;50.868;4.382;2022-07-23T12:25:13;6.65;;;4.97;;
20069;SDS011;10195;50.868;4.382;2022-07-23T12:27:41;10.35;;;6.25;;
20069;SDS011;10195;50.868;4.382;2022-07-23T12:30:24;10.88;;;6.68;;
20069;SDS011;10195;50.868;4.382;2022-07-23T12:32:56;7.88;;;6.28;;
20069;SDS011;10195;50.868;4.382;2022-07-23T12:35:23;8.07;;;5.38;;
20069;SDS011;10195;50.868;4.382;2022-07-23T12:37:59;7.13;;;4.68;;
20069;SDS011;10195;50.868;4.382;2022-07-23T12:40:31;9.68;;;5.78;;
20069;SDS011;10195;50.868;4.382;2022-07-23T12:43:06;9.23;;;6.13;;
20069;SDS011;10195;50.868;4.382;2022-07-23T12:45:44;7.65;;;5.53;;
20069;SDS011;10195;50.868;4.382;2022-07-23T12:48:27;7.85;;;5.43;;
20069;SDS011;10195;50.868;4.382;2022-07-23T12:50:59;12.27;;;5.88;;
20069;SDS011;10195;50.868;4.382;2022-07-23T12:53:27;8.82;;;5.13;;
20069;SDS011;10195;50.868;4.382;2022-07-23T12:56:05;12.50;;;6.05;;
20069;SDS011;10195;50.868;4.382;2022-07-23T13:03:54;8.80;;;5.60;;
20069;SDS011;10195;50.868;4.382;2022-07-23T13:06:38;8.55;;;6.30;;
20069;SDS011;10195;50.868;4.382;2022-07-23T13:09:06;5.82;;;5.00;;
20069;SDS011;10195;50.868;4.382;2022-07-23T13:11:33;9.43;;;5.10;;
20069;SDS011;10195;50.868;4.382;2022-07-23T13:13:59;9.77;;;5.25;;
20069;SDS011;10195;50.868;4.382;2022-07-23T13:16:25;7.38;;;4.53;;
20069;SDS011;10195;50.868;4.382;2022-07-23T13:18:53;11.00;;;4.93;;
20069;SDS011;10195;50.868;4.382;2022-07-23T13:21:18;9.02;;;4.53;;
20069;SDS011;10195;50.868;4.382;2022-07-23T13:23:44;6.93;;;4.45;;
20069;SDS011;10195;50.868;4.382;2022-07-23T13:26:10;8.25;;;5.25;;
20069;SDS011;10195;50.868;4.382;2022-07-23T13:28:35;8.10;;;5.28;;
20069;SDS011;10195;50.868;4.382;2022-07-23T13:31:01;8.50;;;4.60;;
20069;SDS011;10195;50.868;4.382;2022-07-23T13:33:27;7.82;;;4.25;;
20069;SDS011;10195;50.868;4.382;2022-07-23T13:35:53;7.97;;;4.50;;
20069;SDS011;10195;50.868;4.382;2022-07-23T13:38:20;7.28;;;4.07;;
20069;SDS011;10195;50.868;4.382;2022-07-23T13:40:47;5.75;;;3.67;;
20069;SDS011;10195;50.868;4.382;2022-07-23T13:43:16;7.30;;;4.40;;
20069;SDS011;10195;50.868;4.382;2022-07-23T13:45:44;5.63;;;3.97;;
20069;SDS011;10195;50.868;4.382;2022-07-23T13:48:10;5.43;;;3.63;;
20069;SDS011;10195;50.868;4.382;2022-07-23T13:50:36;10.98;;;3.67;;
20069;SDS011;10195;50.868;4.382;2022-07-23T13:53:07;5.80;;;3.20;;
20069;SDS011;10195;50.868;4.382;2022-07-23T13:55:35;6.47;;;3.63;;
20069;SDS011;10195;50.868;4.382;2022-07-23T13:58:02;7.13;;;3.60;;
20069;SDS011;10195;50.868;4.382;2022-07-23T14:00:29;6.25;;;3.72;;
20069;SDS011;10195;50.868;4.382;2022-07-23T14:02:58;4.00;;;3.30;;
20069;SDS011;10195;50.868;4.382;2022-07-23T14:05:24;8.13;;;3.50;;
20069;SDS011;10195;50.868;4.382;2022-07-23T14:07:49;4.40;;;3.40;;
20069;SDS011;10195;50.868;4.382;2022-07-23T14:10:17;5.30;;;3.45;;
20069;SDS011;10195;50.868;4.382;2022-07-23T14:12:44;8.57;;;4.22;;
20069;SDS011;10195;50.868;4.382;2022-07-23T14:15:10;6.38;;;4.32;;
20069;SDS011;10195;50.868;4.382;2022-07-23T14:17:39;12.20;;;4.50;;
20069;SDS011;10195;50.868;4.382;2022-07-23T14:20:07;9.75;;;3.38;;
20069;SDS011;10195;50.868;4.382;2022-07-23T14:22:35;9.18;;;3.67;;
20069;SDS011;10195;50.868;4.382;2022-07-23T14:25:01;4.78;;;3.28;;
20069;SDS011;10195;50.868;4.382;2022-07-23T14:27:28;5.65;;;3.63;;
20069;SDS011;10195;50.868;4.382;2022-07-23T14:29:54;7.13;;;3.70;;
20069;SDS011;10195;50.868;4.382;2022-07-23T14:32:20;6.80;;;3.42;;
20069;SDS011;10195;50.868;4.382;2022-07-23T14:34:46;7.22;;;3.70;;
20069;SDS011;10195;50.868;4.382;2022-07-23T14:37:12;6.05;;;3.53;;
20069;SDS011;10195;50.868;4.382;2022-07-23T14:39:38;7.15;;;3.97;;
20069;SDS011;10195;50.868;4.382;2022-07-23T14:42:05;5.25;;;3.40;;
20069;SDS011;10195;50.868;4.382;2022-07-23T14:44:31;7.65;;;3.92;;
20069;SDS011;10195;50.868;4.382;2022-07-23T14:46:57;7.10;;;4.00;;
20069;SDS011;10195;50.868;4.382;2022-07-23T14:49:23;7.60;;;4.07;;
20069;SDS011;10195;50.868;4.382;2022-07-23T14:51:48;6.63;;;4.05;;
20069;SDS011;10195;50.868;4.382;2022-07-23T14:54:14;6.47;;;4.30;;
20069;SDS011;10195;50.868;4.382;2022-07-23T14:56:40;5.82;;;3.90;;
20069;SDS011;10195;50.868;4.382;2022-07-23T14:59:07;7.18;;;3.97;;
20069;SDS011;10195;50.868;4.382;2022-07-23T15:01:33;8.00;;;3.33;;
20069;SDS011;10195;50.868;4.382;2022-07-23T15:03:59;5.53;;;3.90;;
20069;SDS011;10195;50.868;4.382;2022-07-23T15:06:25;11.27;;;4.18;;
20069;SDS011;10195;50.868;4.382;2022-07-23T15:08:50;7.65;;;3.80;;
20069;SDS011;10195;50.868;4.382;2022-07-23T15:11:16;8.95;;;3.80;;
20069;SDS011;10195;50.868;4.382;2022-07-23T15:13:42;6.45;;;3.40;;
20069;SDS011;10195;50.868;4.382;2022-07-23T15:16:07;8.80;;;3.70;;
20069;SDS011;10195;50.868;4.382;2022-07-23T15:18:33;6.72;;;3.83;;
20069;SDS011;10195;50.868;4.382;2022-07-23T15:20:59;5.22;;;3.58;;
20069;SDS011;10195;50.868;4.382;2022-07-23T15:23:26;5.60;;;3.80;;
20069;SDS011;10195;50.868;4.382;2022-07-23T15:25:53;6.07;;;4.15;;
20069;SDS011;10195;50.868;4.382;2022-07-23T15:28:19;5.70;;;3.72;;
20069;SDS011;10195;50.868;4.382;2022-07-23T15:30:45;4.85;;;4.07;;
20069;SDS011;10195;50.868;4.382;2022-07-23T15:33:11;5.28;;;3.83;;
20069;SDS011;10195;50.868;4.382;2022-07-23T15:35:36;6.32;;;3.63;;